createdAt,value
2016-11-12T00:00:37.391Z,22.63
2016-11-12T00:01:18.129Z,22.63
2016-11-12T00:01:58.931Z,22.75
2016-11-12T00:02:39.585Z,22.74
2016-11-12T00:03:20.272Z,22.72
2016-11-12T00:04:00.914Z,22.72
2016-11-12T00:04:41.634Z,22.59
2016-11-12T00:05:22.392Z,22.57
2016-11-12T00:06:03.168Z,22.75
2016-11-12T00:06:43.882Z,22.74
2016-11-12T00:07:24.599Z,22.69
2016-11-12T00:08:05.255Z,22.72
2016-11-12T00:08:45.922Z,22.6
2016-11-12T00:09:26.790Z,22.74
2016-11-12T00:10:07.490Z,22.63
2016-11-12T00:10:48.156Z,22.64
2016-11-12T00:11:28.838Z,22.76
2016-11-12T00:12:09.541Z,22.66
2016-11-12T00:12:50.308Z,22.72
2016-11-12T00:13:31.178Z,22.63
2016-11-12T00:14:11.873Z,22.69
2016-11-12T00:14:52.606Z,22.63
2016-11-12T00:15:33.281Z,22.67
2016-11-12T00:16:14.047Z,22.61
2016-11-12T00:16:54.674Z,22.61
2016-11-12T00:17:35.386Z,22.59
2016-11-12T00:18:16.162Z,22.6
2016-11-12T00:18:56.854Z,22.59
2016-11-12T00:19:37.557Z,22.59
2016-11-12T00:20:18.223Z,22.63
2016-11-12T00:20:59.018Z,22.52
2016-11-12T00:21:39.654Z,22.59
2016-11-12T00:22:20.434Z,22.49
2016-11-12T00:23:01.178Z,22.39
2016-11-12T00:23:41.935Z,22.39
2016-11-12T00:24:22.599Z,22.36
2016-11-12T00:25:03.349Z,22.36
2016-11-12T00:25:44.063Z,22.26
2016-11-12T00:26:24.722Z,22.27
2016-11-12T00:27:05.367Z,22.23
2016-11-12T00:27:46.000Z,22.19
2016-11-12T00:28:26.785Z,22.19
2016-11-12T00:29:07.442Z,22.24
2016-11-12T00:29:48.096Z,22.11
2016-11-12T00:30:28.784Z,22.15
2016-11-12T00:31:09.402Z,22.17
2016-11-12T00:31:50.070Z,22.08
2016-11-12T00:32:30.784Z,22.14
2016-11-12T00:33:11.503Z,22.11
2016-11-12T00:33:52.101Z,22.12
2016-11-12T00:34:32.859Z,22.05
2016-11-12T00:35:13.617Z,22.06
2016-11-12T00:35:54.224Z,22.01
2016-11-12T00:36:34.994Z,22.02
2016-11-12T00:37:15.657Z,22.08
2016-11-12T00:37:56.307Z,22.02
2016-11-12T00:38:37.022Z,21.99
2016-11-12T00:39:17.619Z,22.09
2016-11-12T00:39:58.248Z,22.04
2016-11-12T00:40:38.940Z,22.09
2016-11-12T00:41:19.645Z,22.09
2016-11-12T00:42:00.237Z,22.19
2016-11-12T00:42:40.929Z,22.26
2016-11-12T00:43:21.507Z,22.15
2016-11-12T00:44:02.141Z,22.2
2016-11-12T00:44:42.746Z,22.24
2016-11-12T00:45:23.399Z,22.2
2016-11-12T00:46:04.120Z,22.2
2016-11-12T00:46:44.810Z,22.2
2016-11-12T00:47:25.493Z,22.23
2016-11-12T00:48:06.214Z,22.21
2016-11-12T00:48:46.811Z,22.21
2016-11-12T00:49:27.557Z,22.27
2016-11-12T00:50:08.214Z,22.29
2016-11-12T00:50:48.833Z,22.31
2016-11-12T00:52:36.405Z,22.23
2016-11-12T00:53:17.083Z,22.36
2016-11-12T00:53:57.702Z,22.33
2016-11-12T00:54:38.343Z,22.36
2016-11-12T00:55:19.041Z,22.35
2016-11-12T00:55:59.739Z,22.35
2016-11-12T00:56:40.389Z,22.33
2016-11-12T00:57:21.058Z,22.38
2016-11-12T00:58:02.659Z,22.41
2016-11-12T00:59:40.007Z,22.38
2016-11-12T01:00:20.696Z,22.38
2016-11-12T01:01:01.377Z,22.44
2016-11-12T01:01:42.059Z,22.41
2016-11-12T01:02:22.876Z,22.31
2016-11-12T01:03:03.602Z,22.42
2016-11-12T01:03:44.366Z,22.35
2016-11-12T01:04:24.988Z,22.35
2016-11-12T01:05:05.595Z,22.36
2016-11-12T01:05:46.211Z,22.31
2016-11-12T01:06:26.877Z,22.41
2016-11-12T01:07:07.577Z,22.38
2016-11-12T01:07:48.207Z,22.31
2016-11-12T01:08:28.802Z,22.39
2016-11-12T01:09:09.517Z,22.35
2016-11-12T01:09:50.201Z,22.27
2016-11-12T01:10:30.938Z,22.23
2016-11-12T01:11:11.675Z,22.3
2016-11-12T01:11:52.307Z,22.33
2016-11-12T01:12:33.137Z,22.31
2016-11-12T01:13:13.751Z,22.33
2016-11-12T01:13:54.391Z,22.3
2016-11-12T01:14:35.104Z,22.36
2016-11-12T01:15:15.794Z,22.35
2016-11-12T01:15:56.582Z,22.23
2016-11-12T01:16:37.219Z,22.29
2016-11-12T01:17:17.932Z,22.3
2016-11-12T01:17:58.636Z,22.27
2016-11-12T01:18:39.298Z,22.36
2016-11-12T01:19:19.997Z,22.3
2016-11-12T01:20:00.653Z,22.31
2016-11-12T01:20:41.267Z,22.29
2016-11-12T01:21:21.880Z,22.27
2016-11-12T01:22:02.581Z,22.3
2016-11-12T01:22:43.359Z,22.26
2016-11-12T01:23:24.115Z,22.3
2016-11-12T01:24:04.828Z,22.24
2016-11-12T01:24:45.386Z,22.26
2016-11-12T01:25:26.102Z,22.3
2016-11-12T01:26:06.796Z,22.26
2016-11-12T01:26:47.546Z,22.24
2016-11-12T01:27:28.222Z,22.2
2016-11-12T01:28:08.883Z,22.2
2016-11-12T01:28:49.624Z,22.21
2016-11-12T01:29:30.314Z,22.24
2016-11-12T01:30:10.878Z,22.19
2016-11-12T01:30:51.543Z,22.29
2016-11-12T01:31:32.213Z,22.19
2016-11-12T01:32:12.865Z,22.19
2016-11-12T01:32:53.583Z,22.21
2016-11-12T01:33:34.219Z,22.23
2016-11-12T01:34:14.881Z,22.21
2016-11-12T01:34:55.570Z,22.11
2016-11-12T01:35:36.224Z,22.17
2016-11-12T01:36:16.868Z,22.17
2016-11-12T01:36:57.573Z,22.19
2016-11-12T01:37:38.243Z,22.26
2016-11-12T01:38:18.889Z,22.17
2016-11-12T01:38:59.530Z,22.19
2016-11-12T01:39:40.170Z,22.2
2016-11-12T01:40:20.835Z,22.21
2016-11-12T01:41:01.534Z,22.19
2016-11-12T01:41:42.198Z,22.2
2016-11-12T01:42:22.864Z,22.2
2016-11-12T01:43:03.577Z,22.15
2016-11-12T01:43:44.245Z,22.12
2016-11-12T01:44:24.890Z,22.15
2016-11-12T01:45:05.539Z,22.19
2016-11-12T01:45:46.334Z,22.24
2016-11-12T01:46:27.008Z,22.15
2016-11-12T01:47:07.714Z,22.06
2016-11-12T01:47:48.415Z,22.23
2016-11-12T01:48:29.128Z,22.24
2016-11-12T01:49:09.763Z,22.17
2016-11-12T01:49:50.398Z,22.2
2016-11-12T01:50:31.071Z,22.14
2016-11-12T01:51:11.724Z,22.05
2016-11-12T01:51:52.387Z,22.24
2016-11-12T01:52:33.006Z,22.15
2016-11-12T01:53:13.582Z,22.15
2016-11-12T01:53:54.259Z,22.01
2016-11-12T01:54:34.882Z,22.05
2016-11-12T01:55:15.472Z,22.11
2016-11-12T01:55:56.094Z,22.04
2016-11-12T01:56:36.689Z,22.08
2016-11-12T01:57:17.530Z,22.05
2016-11-12T01:57:58.274Z,21.99
2016-11-12T01:58:38.927Z,22.01
2016-11-12T01:59:19.509Z,22.04
2016-11-12T02:00:00.214Z,22.02
2016-11-12T02:00:40.909Z,22.09
2016-11-12T02:01:21.633Z,21.98
2016-11-12T02:02:02.285Z,21.96
2016-11-12T02:02:43.004Z,22.06
2016-11-12T02:03:23.655Z,22.04
2016-11-12T02:04:04.350Z,21.96
2016-11-12T02:04:44.976Z,22.06
2016-11-12T02:05:25.665Z,21.96
2016-11-12T02:06:06.335Z,22.02
2016-11-12T02:06:46.999Z,22.05
2016-11-12T02:07:27.631Z,22.11
2016-11-12T02:08:08.245Z,22.12
2016-11-12T02:08:48.896Z,21.99
2016-11-12T02:09:29.549Z,22.06
2016-11-12T02:10:10.153Z,22.06
2016-11-12T02:10:50.810Z,22.08
2016-11-12T02:11:31.447Z,22.09
2016-11-12T02:12:12.079Z,22.14
2016-11-12T02:12:52.819Z,21.98
2016-11-12T02:13:33.620Z,22.08
2016-11-12T02:14:14.220Z,22.02
2016-11-12T02:14:54.909Z,22.05
2016-11-12T02:15:35.589Z,22.04
2016-11-12T02:16:16.229Z,21.93
2016-11-12T02:16:56.805Z,21.93
2016-11-12T02:17:37.576Z,21.91
2016-11-12T02:18:18.144Z,21.83
2016-11-12T02:18:58.751Z,21.82
2016-11-12T02:19:39.384Z,21.74
2016-11-12T02:20:20.064Z,21.7
2016-11-12T02:21:00.722Z,21.77
2016-11-12T02:21:41.388Z,21.75
2016-11-12T02:22:22.005Z,21.74
2016-11-12T02:23:02.664Z,21.77
2016-11-12T02:23:43.311Z,21.7
2016-11-12T02:24:23.978Z,21.63
2016-11-12T02:25:04.670Z,21.61
2016-11-12T02:25:45.320Z,21.61
2016-11-12T02:26:26.018Z,21.63
2016-11-12T02:27:06.704Z,21.56
2016-11-12T02:27:47.415Z,21.64
2016-11-12T02:28:28.098Z,21.56
2016-11-12T02:29:08.790Z,21.63
2016-11-12T02:29:49.501Z,21.53
2016-11-12T02:30:30.106Z,21.52
2016-11-12T02:31:10.770Z,21.51
2016-11-12T02:31:51.430Z,21.53
2016-11-12T02:32:31.998Z,21.51
2016-11-12T02:33:12.721Z,21.56
2016-11-12T02:33:53.406Z,21.58
2016-11-12T02:34:34.080Z,21.61
2016-11-12T02:35:14.760Z,21.59
2016-11-12T02:35:55.428Z,21.56
2016-11-12T02:36:36.082Z,21.7
2016-11-12T02:37:16.700Z,21.75
2016-11-12T02:37:57.302Z,21.79
2016-11-12T02:38:37.892Z,21.83
2016-11-12T02:39:18.606Z,21.83
2016-11-12T02:39:59.287Z,21.82
2016-11-12T02:40:39.977Z,21.74
2016-11-12T02:41:20.567Z,21.82
2016-11-12T02:42:01.177Z,21.79
2016-11-12T02:42:41.905Z,21.77
2016-11-12T02:43:22.537Z,21.73
2016-11-12T02:44:03.085Z,21.77
2016-11-12T02:44:43.759Z,21.81
2016-11-12T02:45:24.343Z,21.77
2016-11-12T02:46:04.991Z,21.77
2016-11-12T02:46:45.679Z,21.82
2016-11-12T02:47:26.391Z,21.75
2016-11-12T02:48:07.067Z,21.77
2016-11-12T02:48:47.710Z,21.91
2016-11-12T02:49:28.415Z,21.85
2016-11-12T02:50:09.079Z,21.9
2016-11-12T02:50:49.721Z,21.74
2016-11-12T02:51:30.307Z,21.86
2016-11-12T02:52:10.951Z,21.89
2016-11-12T02:52:51.511Z,21.85
2016-11-12T02:53:32.089Z,21.86
2016-11-12T02:54:12.783Z,21.89
2016-11-12T02:54:53.469Z,21.86
2016-11-12T02:55:34.134Z,21.85
2016-11-12T02:56:14.768Z,21.86
2016-11-12T02:56:55.458Z,21.91
2016-11-12T02:57:36.070Z,21.9
2016-11-12T02:58:16.756Z,21.98
2016-11-12T02:58:57.583Z,21.96
2016-11-12T02:59:38.276Z,21.93
2016-11-12T03:00:18.924Z,21.86
2016-11-12T03:00:59.587Z,21.91
2016-11-12T03:01:40.186Z,21.79
2016-11-12T03:02:20.797Z,21.89
2016-11-12T03:03:01.494Z,21.75
2016-11-12T03:03:42.154Z,21.83
2016-11-12T03:04:22.916Z,21.82
2016-11-12T03:05:03.542Z,21.81
2016-11-12T03:05:44.130Z,21.89
2016-11-12T03:06:24.782Z,21.93
2016-11-12T03:07:05.496Z,21.9
2016-11-12T03:07:46.148Z,21.9
2016-11-12T03:08:26.830Z,21.9
2016-11-12T03:09:07.596Z,21.91
2016-11-12T03:09:48.342Z,21.85
2016-11-12T03:10:28.927Z,21.93
2016-11-12T03:11:09.578Z,21.85
2016-11-12T03:11:50.200Z,21.91
2016-11-12T03:12:30.858Z,21.81
2016-11-12T03:13:11.489Z,21.9
2016-11-12T03:13:52.175Z,21.91
2016-11-12T03:14:32.772Z,21.86
2016-11-12T03:15:13.360Z,21.89
2016-11-12T03:15:54.078Z,21.86
2016-11-12T03:16:34.784Z,21.83
2016-11-12T03:17:15.336Z,21.83
2016-11-12T03:17:56.074Z,21.81
2016-11-12T03:18:36.736Z,21.85
2016-11-12T03:19:17.390Z,21.79
2016-11-12T03:19:57.998Z,21.79
2016-11-12T03:20:38.614Z,21.82
2016-11-12T03:21:19.173Z,21.83
2016-11-12T03:21:59.839Z,21.82
2016-11-12T03:22:40.485Z,21.77
2016-11-12T03:23:21.092Z,21.79
2016-11-12T03:24:01.739Z,21.77
2016-11-12T03:24:42.433Z,21.83
2016-11-12T03:25:23.087Z,21.85
2016-11-12T03:26:03.797Z,21.79
2016-11-12T03:26:44.427Z,21.77
2016-11-12T03:27:25.037Z,21.83
2016-11-12T03:28:05.673Z,21.79
2016-11-12T03:28:46.345Z,21.82
2016-11-12T03:29:27.029Z,21.81
2016-11-12T03:30:07.689Z,21.79
2016-11-12T03:30:48.298Z,21.75
2016-11-12T03:31:28.875Z,21.85
2016-11-12T03:32:09.548Z,21.82
2016-11-12T03:32:50.275Z,21.75
2016-11-12T03:33:30.989Z,21.74
2016-11-12T03:34:11.653Z,21.82
2016-11-12T03:34:52.358Z,21.74
2016-11-12T03:35:33.033Z,21.77
2016-11-12T03:36:13.775Z,21.81
2016-11-12T03:36:54.439Z,21.79
2016-11-12T03:37:35.179Z,21.77
2016-11-12T03:38:15.839Z,21.82
2016-11-12T03:38:56.651Z,21.79
2016-11-12T03:39:37.388Z,21.85
2016-11-12T03:40:18.087Z,21.75
2016-11-12T03:40:58.691Z,21.75
2016-11-12T03:41:39.382Z,21.77
2016-11-12T03:42:20.053Z,21.82
2016-11-12T03:43:00.751Z,21.7
2016-11-12T03:43:41.409Z,21.73
2016-11-12T03:44:22.132Z,21.82
2016-11-12T03:45:02.832Z,21.85
2016-11-12T03:45:43.539Z,21.74
2016-11-12T03:46:24.175Z,21.79
2016-11-12T03:47:04.858Z,21.89
2016-11-12T03:47:45.600Z,21.77
2016-11-12T03:48:26.284Z,21.81
2016-11-12T03:49:06.964Z,21.74
2016-11-12T03:49:47.676Z,21.75
2016-11-12T03:50:28.292Z,21.7
2016-11-12T03:51:08.954Z,21.83
2016-11-12T03:51:49.714Z,21.82
2016-11-12T03:52:30.408Z,21.89
2016-11-12T03:53:11.118Z,21.89
2016-11-12T03:53:51.858Z,21.75
2016-11-12T03:54:32.516Z,21.77
2016-11-12T03:55:13.354Z,21.82
2016-11-12T03:55:54.018Z,21.85
2016-11-12T03:56:34.626Z,21.77
2016-11-12T03:57:15.328Z,21.77
2016-11-12T03:57:56.010Z,21.83
2016-11-12T03:58:36.625Z,21.82
2016-11-12T03:59:17.241Z,21.77
2016-11-12T03:59:57.891Z,21.77
2016-11-12T04:00:38.519Z,21.89
2016-11-12T04:01:19.181Z,21.82
2016-11-12T04:01:59.737Z,21.79
2016-11-12T04:02:40.489Z,21.82
2016-11-12T04:03:21.097Z,21.77
2016-11-12T04:04:01.851Z,21.83
2016-11-12T04:04:42.593Z,21.83
2016-11-12T04:05:23.237Z,21.91
2016-11-12T04:06:03.854Z,21.82
2016-11-12T04:06:44.529Z,21.82
2016-11-12T04:07:25.169Z,21.82
2016-11-12T04:08:05.899Z,21.91
2016-11-12T04:08:46.619Z,21.89
2016-11-12T04:09:27.459Z,21.89
2016-11-12T04:10:08.186Z,21.89
2016-11-12T04:10:48.890Z,21.83
2016-11-12T04:11:29.547Z,21.82
2016-11-12T04:12:10.258Z,21.77
2016-11-12T04:12:50.864Z,21.83
2016-11-12T04:13:31.522Z,21.81
2016-11-12T04:14:12.270Z,21.77
2016-11-12T04:14:52.936Z,21.77
2016-11-12T04:15:33.592Z,21.89
2016-11-12T04:16:14.304Z,21.83
2016-11-12T04:16:54.881Z,21.74
2016-11-12T04:17:35.678Z,21.79
2016-11-12T04:18:16.314Z,21.77
2016-11-12T04:18:56.969Z,21.79
2016-11-12T04:19:37.653Z,21.89
2016-11-12T04:20:18.307Z,21.81
2016-11-12T04:20:58.935Z,21.75
2016-11-12T04:21:39.649Z,21.79
2016-11-12T04:22:20.341Z,21.77
2016-11-12T04:23:01.031Z,21.77
2016-11-12T04:23:41.717Z,21.77
2016-11-12T04:24:22.487Z,21.79
2016-11-12T04:25:03.200Z,21.7
2016-11-12T04:25:43.887Z,21.7
2016-11-12T04:26:24.562Z,21.73
2016-11-12T04:27:05.262Z,21.73
2016-11-12T04:27:45.884Z,21.82
2016-11-12T04:28:26.500Z,21.74
2016-11-12T04:29:07.234Z,21.82
2016-11-12T04:29:47.896Z,21.75
2016-11-12T04:30:28.518Z,21.79
2016-11-12T04:31:09.219Z,21.75
2016-11-12T04:31:49.918Z,21.77
2016-11-12T04:32:30.652Z,21.71
2016-11-12T04:33:11.514Z,21.75
2016-11-12T04:33:52.164Z,21.74
2016-11-12T04:34:32.894Z,21.81
2016-11-12T04:35:13.486Z,21.75
2016-11-12T04:35:54.099Z,21.71
2016-11-12T04:36:34.721Z,21.7
2016-11-12T04:37:15.295Z,21.74
2016-11-12T04:37:55.975Z,21.68
2016-11-12T04:38:36.651Z,21.68
2016-11-12T04:39:17.268Z,21.7
2016-11-12T04:39:57.939Z,21.7
2016-11-12T04:40:38.623Z,21.73
2016-11-12T04:41:19.363Z,21.7
2016-11-12T04:42:00.105Z,21.71
2016-11-12T04:42:40.783Z,21.73
2016-11-12T04:43:21.402Z,21.77
2016-11-12T04:44:02.007Z,21.75
2016-11-12T04:44:42.662Z,21.77
2016-11-12T04:45:23.388Z,21.7
2016-11-12T04:46:04.100Z,21.73
2016-11-12T04:46:44.746Z,21.73
2016-11-12T04:47:25.550Z,21.75
2016-11-12T04:48:06.252Z,21.79
2016-11-12T04:48:46.958Z,21.75
2016-11-12T04:49:27.553Z,21.73
2016-11-12T04:50:08.212Z,21.74
2016-11-12T04:50:48.924Z,21.73
2016-11-12T04:51:29.634Z,21.71
2016-11-12T04:52:10.258Z,21.79
2016-11-12T04:52:50.950Z,21.74
2016-11-12T04:53:31.778Z,21.7
2016-11-12T04:54:12.382Z,21.68
2016-11-12T04:54:52.958Z,21.71
2016-11-12T04:55:33.691Z,21.61
2016-11-12T04:56:14.412Z,21.67
2016-11-12T04:56:55.068Z,21.7
2016-11-12T04:57:35.732Z,21.7
2016-11-12T04:58:16.362Z,21.53
2016-11-12T04:58:57.134Z,21.46
2016-11-12T04:59:37.748Z,21.16
2016-11-12T05:00:18.464Z,20.97
2016-11-12T05:00:59.236Z,20.75
2016-11-12T05:01:39.942Z,20.73
2016-11-12T05:02:20.636Z,20.71
2016-11-12T05:03:01.309Z,20.76
2016-11-12T05:03:41.962Z,20.72
2016-11-12T05:04:22.629Z,20.76
2016-11-12T05:05:03.327Z,20.76
2016-11-12T05:05:43.975Z,20.71
2016-11-12T05:06:24.606Z,20.73
2016-11-12T05:07:05.217Z,20.73
2016-11-12T05:07:45.911Z,20.79
2016-11-12T05:08:26.489Z,20.66
2016-11-12T05:09:07.227Z,20.68
2016-11-12T05:09:48.026Z,20.68
2016-11-12T05:10:28.708Z,20.69
2016-11-12T05:11:09.350Z,20.63
2016-11-12T05:11:49.933Z,20.66
2016-11-12T05:12:30.598Z,20.69
2016-11-12T05:13:11.265Z,20.64
2016-11-12T05:13:51.959Z,20.63
2016-11-12T05:14:32.641Z,20.58
2016-11-12T05:15:13.275Z,20.68
2016-11-12T05:15:53.886Z,20.6
2016-11-12T05:16:34.623Z,20.66
2016-11-12T05:17:15.287Z,20.63
2016-11-12T05:17:55.879Z,20.63
2016-11-12T05:18:36.448Z,20.6
2016-11-12T05:19:17.121Z,20.61
2016-11-12T05:19:57.754Z,20.56
2016-11-12T05:21:35.119Z,20.56
2016-11-12T05:23:27.677Z,20.44
2016-11-12T05:24:08.328Z,20.56
2016-11-12T05:24:49.047Z,20.54
2016-11-12T05:25:29.759Z,20.48
2016-11-12T05:26:10.436Z,20.56
2016-11-12T05:26:51.132Z,20.44
2016-11-12T05:27:31.875Z,20.5
2016-11-12T05:28:12.497Z,20.51
2016-11-12T05:28:53.116Z,20.5
2016-11-12T05:29:33.781Z,20.51
2016-11-12T05:30:14.449Z,20.54
2016-11-12T05:30:55.117Z,20.56
2016-11-12T05:31:35.821Z,20.57
2016-11-12T05:32:16.519Z,20.41
2016-11-12T05:32:57.337Z,20.48
2016-11-12T05:33:38.618Z,20.4
2016-11-12T05:34:19.343Z,20.46
2016-11-12T05:34:59.971Z,20.41
2016-11-12T05:35:40.615Z,20.46
2016-11-12T05:36:21.227Z,20.4
2016-11-12T05:37:01.916Z,20.44
2016-11-12T05:37:42.627Z,20.37
2016-11-12T05:38:23.333Z,20.44
2016-11-12T05:39:04.105Z,20.44
2016-11-12T05:39:44.689Z,20.41
2016-11-12T05:40:25.436Z,20.34
2016-11-12T05:41:06.089Z,20.41
2016-11-12T05:41:46.699Z,20.34
2016-11-12T05:42:27.433Z,20.3
2016-11-12T05:43:08.058Z,20.3
2016-11-12T05:43:48.765Z,20.27
2016-11-12T05:44:29.393Z,20.31
2016-11-12T05:45:10.105Z,20.38
2016-11-12T05:45:50.962Z,20.31
2016-11-12T05:46:31.726Z,20.33
2016-11-12T05:47:12.338Z,20.4
2016-11-12T05:47:52.958Z,20.27
2016-11-12T05:48:33.658Z,20.34
2016-11-12T05:49:14.280Z,20.33
2016-11-12T05:49:54.888Z,20.34
2016-11-12T05:50:35.504Z,20.34
2016-11-12T05:51:16.084Z,20.31
2016-11-12T05:51:56.757Z,20.27
2016-11-12T05:52:37.467Z,20.35
2016-11-12T05:53:18.178Z,20.31
2016-11-12T05:53:58.810Z,20.33
2016-11-12T05:54:39.402Z,20.22
2016-11-12T05:55:20.022Z,20.19
2016-11-12T05:56:00.647Z,20.16
2016-11-12T05:56:41.259Z,20.27
2016-11-12T05:57:21.948Z,20.2
2016-11-12T05:58:02.580Z,20.22
2016-11-12T05:58:43.316Z,20.2
2016-11-12T05:59:23.982Z,20.19
2016-11-12T06:00:04.683Z,20.25
2016-11-12T06:00:45.298Z,20.22
2016-11-12T06:01:25.957Z,20.19
2016-11-12T06:02:06.592Z,20.22
2016-11-12T06:02:47.229Z,20.23
2016-11-12T06:03:27.851Z,20.2
2016-11-12T06:04:08.450Z,20.22
2016-11-12T06:04:49.085Z,20.22
2016-11-12T06:05:29.713Z,20.23
2016-11-12T06:06:10.377Z,20.19
2016-11-12T06:06:51.029Z,20.17
2016-11-12T06:07:31.709Z,20.23
2016-11-12T06:08:12.315Z,20.16
2016-11-12T06:08:53.045Z,20.17
2016-11-12T06:09:33.731Z,20.22
2016-11-12T06:10:14.387Z,20.19
2016-11-12T06:10:55.061Z,20.07
2016-11-12T06:11:35.691Z,20.15
2016-11-12T06:12:16.381Z,20.13
2016-11-12T06:12:57.047Z,20.08
2016-11-12T06:13:37.663Z,20.1
2016-11-12T06:14:18.329Z,20.05
2016-11-12T06:14:58.995Z,20.12
2016-11-12T06:15:39.594Z,20.12
2016-11-12T06:16:20.225Z,20.17
2016-11-12T06:17:00.862Z,20.1
2016-11-12T06:17:41.515Z,20.08
2016-11-12T06:18:22.160Z,20.13
2016-11-12T06:19:02.820Z,20.12
2016-11-12T06:19:43.500Z,20.1
2016-11-12T06:20:24.232Z,20.07
2016-11-12T06:21:04.872Z,20.1
2016-11-12T06:21:45.577Z,20.08
2016-11-12T06:22:26.230Z,20.08
2016-11-12T06:23:06.976Z,20.12
2016-11-12T06:23:47.553Z,20.05
2016-11-12T06:24:28.242Z,20.07
2016-11-12T06:25:08.962Z,20.1
2016-11-12T06:25:49.584Z,20.07
2016-11-12T06:26:30.354Z,20.04
2016-11-12T06:27:11.036Z,20.01
2016-11-12T06:27:51.672Z,19.97
2016-11-12T06:28:32.370Z,20.04
2016-11-12T06:29:13.042Z,20.02
2016-11-12T06:29:53.748Z,20
2016-11-12T06:30:34.419Z,20.04
2016-11-12T06:31:15.097Z,20.08
2016-11-12T06:31:55.834Z,20.05
2016-11-12T06:32:36.485Z,20.07
2016-11-12T06:33:17.153Z,20.08
2016-11-12T06:33:57.905Z,20.01
2016-11-12T06:34:38.725Z,20.07
2016-11-12T06:35:19.405Z,20.07
2016-11-12T06:36:00.105Z,19.95
2016-11-12T06:36:40.721Z,20.02
2016-11-12T06:37:21.303Z,19.95
2016-11-12T06:38:01.925Z,20.07
2016-11-12T06:38:42.579Z,19.98
2016-11-12T06:39:23.227Z,20
2016-11-12T06:40:03.903Z,20
2016-11-12T06:40:44.517Z,20
2016-11-12T06:41:25.217Z,19.95
2016-11-12T06:42:05.879Z,20
2016-11-12T06:42:46.527Z,19.94
2016-11-12T06:43:27.132Z,20.01
2016-11-12T06:44:07.861Z,20
2016-11-12T06:44:48.519Z,19.97
2016-11-12T06:45:29.186Z,20
2016-11-12T06:46:09.870Z,19.97
2016-11-12T06:46:50.609Z,20
2016-11-12T06:47:31.210Z,20
2016-11-12T06:48:11.846Z,20
2016-11-12T06:48:52.472Z,19.97
2016-11-12T06:49:33.136Z,20
2016-11-12T06:50:13.846Z,19.9
2016-11-12T06:50:54.482Z,19.9
2016-11-12T06:51:35.092Z,19.89
2016-11-12T06:52:15.804Z,19.9
2016-11-12T06:52:56.500Z,19.87
2016-11-12T06:54:33.848Z,19.9
2016-11-12T06:55:14.604Z,19.85
2016-11-12T06:55:55.422Z,20
2016-11-12T06:56:36.180Z,19.87
2016-11-12T06:57:16.884Z,19.85
2016-11-12T06:57:57.570Z,19.82
2016-11-12T06:58:38.246Z,19.85
2016-11-12T06:59:18.978Z,19.83
2016-11-12T06:59:59.768Z,19.86
2016-11-12T07:00:40.482Z,19.82
2016-11-12T07:01:21.260Z,19.8
2016-11-12T07:02:02.021Z,19.83
2016-11-12T07:02:42.586Z,19.83
2016-11-12T07:03:23.306Z,19.82
2016-11-12T07:04:04.003Z,19.83
2016-11-12T07:04:44.639Z,19.85
2016-11-12T07:05:25.383Z,19.87
2016-11-12T07:06:06.093Z,19.76
2016-11-12T07:06:46.713Z,19.82
2016-11-12T07:07:27.366Z,19.83
2016-11-12T07:08:08.020Z,19.79
2016-11-12T07:08:48.703Z,19.82
2016-11-12T07:09:29.427Z,19.85
2016-11-12T07:10:10.285Z,19.82
2016-11-12T07:10:50.965Z,19.83
2016-11-12T07:11:31.633Z,19.8
2016-11-12T07:12:12.233Z,19.79
2016-11-12T07:12:52.979Z,19.82
2016-11-12T07:13:33.698Z,19.78
2016-11-12T07:14:14.414Z,19.78
2016-11-12T07:14:55.075Z,19.83
2016-11-12T07:15:35.792Z,19.8
2016-11-12T07:16:16.492Z,19.76
2016-11-12T07:16:57.346Z,19.78
2016-11-12T07:17:38.012Z,19.83
2016-11-12T07:18:18.680Z,19.76
2016-11-12T07:18:59.372Z,19.75
2016-11-12T07:19:40.080Z,19.78
2016-11-12T07:20:20.832Z,19.8
2016-11-12T07:21:01.566Z,19.71
2016-11-12T07:21:42.282Z,19.79
2016-11-12T07:22:22.964Z,19.72
2016-11-12T07:23:03.700Z,19.72
2016-11-12T07:23:44.422Z,19.76
2016-11-12T07:24:25.197Z,19.64
2016-11-12T07:25:05.869Z,19.75
2016-11-12T07:25:46.584Z,19.68
2016-11-12T07:26:27.319Z,19.71
2016-11-12T07:27:08.092Z,19.67
2016-11-12T07:27:48.784Z,19.64
2016-11-12T07:28:29.423Z,19.67
2016-11-12T07:29:10.075Z,19.68
2016-11-12T07:29:50.786Z,19.65
2016-11-12T07:30:31.521Z,19.76
2016-11-12T07:31:12.129Z,19.68
2016-11-12T07:31:52.823Z,19.67
2016-11-12T07:32:33.455Z,19.7
2016-11-12T07:33:14.055Z,19.65
2016-11-12T07:33:54.717Z,19.65
2016-11-12T07:34:35.407Z,19.64
2016-11-12T07:35:16.037Z,19.67
2016-11-12T07:35:56.793Z,19.62
2016-11-12T07:36:37.431Z,19.64
2016-11-12T07:37:18.133Z,19.7
2016-11-12T07:37:58.815Z,19.67
2016-11-12T07:38:39.473Z,19.71
2016-11-12T07:39:20.226Z,19.67
2016-11-12T07:40:00.907Z,19.67
2016-11-12T07:40:41.678Z,19.68
2016-11-12T07:41:22.390Z,19.67
2016-11-12T07:42:03.195Z,19.68
2016-11-12T07:42:43.914Z,19.68
2016-11-12T07:43:24.534Z,19.68
2016-11-12T07:44:05.159Z,19.67
2016-11-12T07:44:45.859Z,19.68
2016-11-12T07:45:26.534Z,19.68
2016-11-12T07:46:07.135Z,19.71
2016-11-12T07:46:47.767Z,19.67
2016-11-12T07:47:28.542Z,19.71
2016-11-12T07:48:09.186Z,19.67
2016-11-12T07:48:49.773Z,19.7
2016-11-12T07:49:30.415Z,19.62
2016-11-12T07:50:10.990Z,19.65
2016-11-12T07:50:51.591Z,19.72
2016-11-12T07:51:32.299Z,19.62
2016-11-12T07:52:12.915Z,19.7
2016-11-12T07:52:53.509Z,19.7
2016-11-12T07:53:34.139Z,19.61
2016-11-12T07:54:14.745Z,19.58
2016-11-12T07:54:55.369Z,19.68
2016-11-12T07:55:36.085Z,19.64
2016-11-12T07:56:16.764Z,19.68
2016-11-12T07:56:57.502Z,19.61
2016-11-12T07:57:38.215Z,19.64
2016-11-12T07:58:18.945Z,19.68
2016-11-12T07:58:59.621Z,19.75
2016-11-12T07:59:40.229Z,19.7
2016-11-12T08:00:20.896Z,19.71
2016-11-12T08:01:01.632Z,19.61
2016-11-12T08:01:42.416Z,19.7
2016-11-12T08:02:23.117Z,19.7
2016-11-12T08:03:03.842Z,19.62
2016-11-12T08:03:44.454Z,19.7
2016-11-12T08:04:25.270Z,19.65
2016-11-12T08:05:05.930Z,19.65
2016-11-12T08:05:47.518Z,19.67
2016-11-12T08:06:28.190Z,19.64
2016-11-12T08:07:08.846Z,19.62
2016-11-12T08:07:49.470Z,19.64
2016-11-12T08:08:30.084Z,19.68
2016-11-12T08:09:10.806Z,19.58
2016-11-12T08:09:51.564Z,19.68
2016-11-12T08:10:32.278Z,19.67
2016-11-12T08:11:12.954Z,19.67
2016-11-12T08:11:53.706Z,19.68
2016-11-12T08:12:34.394Z,19.64
2016-11-12T08:13:15.100Z,19.62
2016-11-12T08:13:55.703Z,19.7
2016-11-12T08:14:36.382Z,19.68
2016-11-12T08:15:17.121Z,19.7
2016-11-12T08:15:57.834Z,19.6
2016-11-12T08:16:38.533Z,19.67
2016-11-12T08:17:19.223Z,19.67
2016-11-12T08:17:59.856Z,19.67
2016-11-12T08:18:40.573Z,19.64
2016-11-12T08:19:21.322Z,19.71
2016-11-12T08:20:01.956Z,19.67
2016-11-12T08:20:42.685Z,19.68
2016-11-12T08:21:23.317Z,19.72
2016-11-12T08:22:03.945Z,19.65
2016-11-12T08:22:44.659Z,19.71
2016-11-12T08:23:25.355Z,19.67
2016-11-12T08:24:05.927Z,19.71
2016-11-12T08:24:46.689Z,19.71
2016-11-12T08:25:27.411Z,19.68
2016-11-12T08:26:08.115Z,19.68
2016-11-12T08:26:48.808Z,19.71
2016-11-12T08:27:29.553Z,19.68
2016-11-12T08:28:10.187Z,19.65
2016-11-12T08:28:50.860Z,19.68
2016-11-12T08:29:31.667Z,19.72
2016-11-12T08:30:12.296Z,19.67
2016-11-12T08:30:53.094Z,19.65
2016-11-12T08:31:33.838Z,19.71
2016-11-12T08:32:14.495Z,19.64
2016-11-12T08:32:55.188Z,19.65
2016-11-12T08:33:35.798Z,19.67
2016-11-12T08:34:16.472Z,19.65
2016-11-12T08:34:57.098Z,19.61
2016-11-12T08:35:37.784Z,19.67
2016-11-12T08:36:18.498Z,19.65
2016-11-12T08:36:59.267Z,19.72
2016-11-12T08:37:39.942Z,19.67
2016-11-12T08:38:20.604Z,19.76
2016-11-12T08:39:01.306Z,19.72
2016-11-12T08:39:42.106Z,19.67
2016-11-12T08:40:22.840Z,19.71
2016-11-12T08:41:03.580Z,19.68
2016-11-12T08:41:45.110Z,19.64
2016-11-12T08:42:24.899Z,19.72
2016-11-12T08:43:05.557Z,19.7
2016-11-12T08:43:46.316Z,19.78
2016-11-12T08:44:26.972Z,19.67
2016-11-12T08:45:07.698Z,19.62
2016-11-12T08:45:48.387Z,19.71
2016-11-12T08:46:29.028Z,19.67
2016-11-12T08:47:09.643Z,19.71
2016-11-12T08:47:50.212Z,19.75
2016-11-12T08:48:30.883Z,19.72
2016-11-12T08:49:11.629Z,19.65
2016-11-12T08:49:52.259Z,19.72
2016-11-12T08:50:32.967Z,19.75
2016-11-12T08:51:13.633Z,19.71
2016-11-12T08:51:54.305Z,19.68